Time;durP1;ratioP1;P1;durP2;ratioP2;P2;SDS_P1;SDS_P2;PMS_P1;PMS_P2;Temp;Humidity;BMP_temperature;BMP_pressure;BME280_temperature;BME280_humidity;BME280_pressure;Samples;Min_cycle;Max_cycle;Signal;HPM_P1;HPM_P2
2023/05/25 00:00:15;;;;;;;10.73;3.47;;;9.40;99.90;;;;;;5053951;28;20029;-48
2023/05/25 00:02:45;;;;;;;8.37;2.73;;;9.50;99.90;;;;;;5054077;28;20029;-48
2023/05/25 00:05:11;;;;;;;8.67;3.17;;;9.50;99.90;;;;;;5054022;28;20029;-50
2023/05/25 00:07:38;;;;;;;9.20;3.20;;;9.50;99.90;;;;;;5054013;28;20029;-49
2023/05/25 00:10:05;;;;;;;8.57;3.23;;;9.50;99.90;;;;;;5053884;28;20494;-52
2023/05/25 00:12:32;;;;;;;9.17;2.77;;;9.60;99.90;;;;;;5053744;28;20087;-49
2023/05/25 00:14:58;;;;;;;6.80;2.87;;;9.60;99.90;;;;;;5053827;28;20047;-51
2023/05/25 00:17:24;;;;;;;7.63;3.30;;;9.60;99.90;;;;;;5053885;28;20036;-49
2023/05/25 00:19:50;;;;;;;8.33;2.50;;;9.60;99.90;;;;;;5053895;28;20036;-51
2023/05/25 00:22:16;;;;;;;11.77;3.73;;;9.50;99.90;;;;;;5053481;28;20039;-48
2023/05/25 00:24:42;;;;;;;8.30;3.33;;;9.60;99.90;;;;;;5053724;28;20033;-50
2023/05/25 00:27:07;;;;;;;8.87;3.03;;;9.60;99.90;;;;;;5053876;28;20036;-48
2023/05/25 00:29:34;;;;;;;9.27;2.83;;;9.60;99.90;;;;;;5053937;28;20044;-48
2023/05/25 00:32:01;;;;;;;6.57;3.30;;;9.60;99.90;;;;;;5053747;28;20102;-51
2023/05/25 00:34:27;;;;;;;8.73;3.27;;;9.60;99.90;;;;;;5052436;28;20029;-48
2023/05/25 00:36:53;;;;;;;7.40;2.87;;;9.60;99.90;;;;;;5052609;28;20238;-48
2023/05/25 00:39:20;;;;;;;9.03;3.40;;;9.60;99.90;;;;;;5053712;28;20032;-50
2023/05/25 00:41:47;;;;;;;8.50;2.70;;;9.60;99.90;;;;;;5053163;28;20032;-49
2023/05/25 00:44:14;;;;;;;6.83;2.67;;;9.50;99.90;;;;;;5052109;28;20068;-48
2023/05/25 00:46:51;;;;;;;8.63;3.40;;;9.50;99.90;;;;;;5053599;28;20033;-49
2023/05/25 00:49:19;;;;;;;6.47;2.77;;;9.50;99.90;;;;;;5053302;28;20152;-50
2023/05/25 00:51:46;;;;;;;8.13;2.80;;;9.50;99.90;;;;;;5052979;28;20033;-50
2023/05/25 00:54:16;;;;;;;6.33;2.93;;;9.60;99.90;;;;;;5051682;28;20044;-49
2023/05/25 00:56:46;;;;;;;10.00;3.20;;;9.50;99.90;;;;;;5051798;28;20029;-48
2023/05/25 00:59:16;;;;;;;9.27;3.50;;;9.50;99.90;;;;;;5051973;28;20436;-49
2023/05/25 01:01:44;;;;;;;10.30;3.57;;;9.50;99.90;;;;;;5052744;28;20037;-52
2023/05/25 01:04:14;;;;;;;8.67;3.43;;;9.50;99.90;;;;;;5052882;28;20029;-49
2023/05/25 01:06:46;;;;;;;9.00;3.43;;;9.40;99.90;;;;;;5052850;28;20366;-49
2023/05/25 01:09:16;;;;;;;5.70;2.90;;;9.30;99.90;;;;;;5053298;28;20560;-50
2023/05/25 01:11:44;;;;;;;7.87;3.43;;;9.30;99.90;;;;;;5051298;28;20047;-50
2023/05/25 01:14:11;;;;;;;10.38;3.50;;;9.40;99.90;;;;;;5052690;28;20096;-49
2023/05/25 01:16:38;;;;;;;7.30;2.80;;;9.40;99.90;;;;;;5051438;28;20044;-48
2023/05/25 01:19:04;;;;;;;8.23;3.30;;;9.40;99.90;;;;;;5052725;28;20393;-48
2023/05/25 01:21:41;;;;;;;7.87;3.03;;;9.40;99.90;;;;;;5052207;28;20029;-49
2023/05/25 01:24:20;;;;;;;8.50;3.43;;;9.40;99.90;;;;;;5052572;28;20017;-50
2023/05/25 01:26:58;;;;;;;7.23;3.03;;;9.40;99.90;;;;;;5051362;28;20057;-50
2023/05/25 01:29:26;;;;;;;6.43;2.90;;;9.40;99.90;;;;;;5051225;28;20075;-50
2023/05/25 01:31:54;;;;;;;10.17;3.47;;;9.40;99.90;;;;;;5052072;28;20033;-49
2023/05/25 01:34:20;;;;;;;8.43;3.73;;;9.40;99.90;;;;;;5052176;28;20162;-49
2023/05/25 01:36:46;;;;;;;9.93;3.37;;;9.40;99.90;;;;;;5052089;28;20033;-49
2023/05/25 01:39:12;;;;;;;9.30;3.60;;;9.40;99.90;;;;;;5052288;28;20056;-50
2023/05/25 01:41:37;;;;;;;10.40;3.43;;;9.40;99.90;;;;;;5051925;28;20025;-48
2023/05/25 01:44:06;;;;;;;10.23;4.03;;;9.40;99.90;;;;;;5051987;28;20425;-49
2023/05/25 01:46:40;;;;;;;8.57;3.47;;;9.40;99.90;;;;;;5052321;28;20488;-49
2023/05/25 01:49:25;;;;;;;8.47;3.17;;;9.40;99.90;;;;;;5052170;28;20029;-49
2023/05/25 01:52:31;;;;;;;8.33;3.00;;;9.30;99.90;;;;;;5050503;28;20025;-49
2023/05/25 01:55:04;;;;;;;8.47;3.33;;;9.30;99.90;;;;;;5009432;28;20038;-49
2023/05/25 01:57:33;;;;;;;9.33;3.50;;;9.30;99.90;;;;;;5042928;28;20044;-49
2023/05/25 02:00:01;;;;;;;10.93;3.50;;;9.30;99.90;;;;;;5049964;28;20551;-50
2023/05/25 02:02:27;;;;;;;8.13;2.97;;;9.30;99.90;;;;;;5050512;28;20047;-50
2023/05/25 02:04:54;;;;;;;10.67;3.60;;;9.30;99.90;;;;;;5050094;28;20439;-48
2023/05/25 02:07:22;;;;;;;9.93;3.27;;;9.20;99.90;;;;;;5051814;28;20056;-49
2023/05/25 02:09:48;;;;;;;7.60;3.50;;;9.30;99.90;;;;;;5050539;28;20029;-49
2023/05/25 02:12:13;;;;;;;5.17;2.70;;;9.20;99.90;;;;;;5051390;28;20375;-49
2023/05/25 02:14:39;;;;;;;11.77;3.77;;;9.20;99.90;;;;;;5050080;28;20075;-49
2023/05/25 02:17:06;;;;;;;8.63;3.57;;;9.20;99.90;;;;;;5050244;28;20037;-50
2023/05/25 02:19:32;;;;;;;9.47;3.30;;;9.30;99.90;;;;;;5050066;28;20094;-48
2023/05/25 02:21:58;;;;;;;8.90;3.57;;;9.30;99.90;;;;;;5051068;28;20033;-49
2023/05/25 02:24:24;;;;;;;8.93;3.00;;;9.30;99.90;;;;;;5049866;28;20116;-48
2023/05/25 02:26:50;;;;;;;8.17;3.50;;;9.30;99.90;;;;;;5051399;28;20104;-49
2023/05/25 02:29:16;;;;;;;9.63;3.17;;;9.30;99.90;;;;;;5050145;28;20030;-50
2023/05/25 02:31:42;;;;;;;9.43;3.70;;;9.30;99.90;;;;;;5051379;28;20048;-48
2023/05/25 02:34:08;;;;;;;10.73;3.27;;;9.30;99.90;;;;;;5051051;28;20037;-49
2023/05/25 02:36:35;;;;;;;10.57;3.77;;;9.20;99.90;;;;;;5051147;28;20113;-49
2023/05/25 02:39:03;;;;;;;8.70;3.45;;;9.20;99.90;;;;;;5049997;28;20440;-49
2023/05/25 02:41:28;;;;;;;8.03;3.03;;;9.10;99.90;;;;;;5050883;28;20025;-48
2023/05/25 02:43:54;;;;;;;8.27;3.50;;;9.10;99.90;;;;;;5049618;28;20118;-49
2023/05/25 02:46:21;;;;;;;7.43;3.40;;;9.10;99.90;;;;;;5051154;28;20695;-50
2023/05/25 02:48:47;;;;;;;8.87;3.33;;;9.10;99.90;;;;;;5049658;28;20029;-49
2023/05/25 02:51:13;;;;;;;7.93;3.23;;;9.10;99.90;;;;;;5049438;28;20040;-48
2023/05/25 02:53:39;;;;;;;7.47;2.93;;;9.10;99.90;;;;;;5050995;28;20029;-48
2023/05/25 02:56:05;;;;;;;9.53;3.20;;;9.00;99.90;;;;;;5049738;28;20025;-48
2023/05/25 02:58:33;;;;;;;9.23;3.40;;;9.10;99.90;;;;;;5049640;28;20029;-48
2023/05/25 03:01:09;;;;;;;7.10;3.13;;;9.00;99.90;;;;;;5049103;28;20032;-48
2023/05/25 03:03:38;;;;;;;7.30;3.70;;;9.00;99.90;;;;;;5049275;28;20021;-48
2023/05/25 03:06:06;;;;;;;8.77;3.13;;;9.00;99.90;;;;;;5049701;28;20555;-48
2023/05/25 03:08:32;;;;;;;8.23;3.70;;;8.90;99.90;;;;;;5049425;28;20032;-50
2023/05/25 03:10:58;;;;;;;9.10;4.00;;;8.80;99.90;;;;;;5048476;28;20453;-49
2023/05/25 03:13:25;;;;;;;10.53;3.70;;;8.80;99.90;;;;;;5048981;28;20119;-49
2023/05/25 03:15:51;;;;;;;7.93;3.30;;;8.70;99.90;;;;;;5049222;28;20115;-49
2023/05/25 03:18:17;;;;;;;13.53;3.37;;;8.60;99.90;;;;;;5049338;28;20039;-48
2023/05/25 03:20:44;;;;;;;7.13;3.00;;;8.60;99.90;;;;;;5049024;28;20029;-48
2023/05/25 03:23:10;;;;;;;6.80;3.67;;;8.50;99.90;;;;;;5049114;28;20036;-50
2023/05/25 03:25:37;;;;;;;7.83;3.20;;;8.60;99.90;;;;;;5049262;28;20048;-50
2023/05/25 03:28:03;;;;;;;8.27;3.37;;;8.50;99.90;;;;;;5049241;28;20033;-48
2023/05/25 03:30:30;;;;;;;7.90;3.53;;;8.50;99.90;;;;;;5048955;28;20039;-49
2023/05/25 03:32:56;;;;;;;11.07;3.90;;;8.50;99.90;;;;;;5049370;28;20394;-48
2023/05/25 03:35:23;;;;;;;10.57;3.87;;;8.60;99.90;;;;;;5049141;28;20040;-49
2023/05/25 03:37:49;;;;;;;6.60;3.57;;;8.60;99.90;;;;;;5050421;28;20401;-50
2023/05/25 03:40:16;;;;;;;9.97;3.47;;;8.60;99.90;;;;;;5048890;28;20029;-48
2023/05/25 03:42:42;;;;;;;11.73;4.30;;;8.60;99.90;;;;;;5048970;28;20033;-48
2023/05/25 03:45:08;;;;;;;12.73;3.77;;;8.60;99.90;;;;;;5048774;28;20075;-49
2023/05/25 03:47:35;;;;;;;7.30;3.70;;;8.60;99.90;;;;;;5049045;28;20036;-48
2023/05/25 03:50:03;;;;;;;10.00;3.83;;;8.60;99.90;;;;;;5050352;28;20139;-49
2023/05/25 03:52:28;;;;;;;15.27;4.20;;;8.60;99.90;;;;;;5049017;28;20492;-51
2023/05/25 03:54:54;;;;;;;10.77;3.80;;;8.70;99.90;;;;;;5048926;28;20510;-49
2023/05/25 03:57:20;;;;;;;10.63;4.17;;;8.70;99.90;;;;;;5049026;28;20079;-49
2023/05/25 03:59:46;;;;;;;8.90;3.57;;;8.70;99.90;;;;;;5050275;28;20445;-48
2023/05/25 04:02:12;;;;;;;9.23;4.03;;;8.80;99.90;;;;;;5048595;28;20037;-48
2023/05/25 04:04:40;;;;;;;11.50;3.23;;;8.80;99.90;;;;;;5049105;28;20033;-50
2023/05/25 04:07:07;;;;;;;11.47;4.00;;;8.80;99.90;;;;;;5049147;28;20116;-49
2023/05/25 04:09:32;;;;;;;10.37;3.77;;;8.80;99.90;;;;;;5049535;28;20461;-49
2023/05/25 04:11:58;;;;;;;9.40;4.07;;;8.90;99.90;;;;;;5050122;28;20035;-48
2023/05/25 04:14:24;;;;;;;9.10;3.83;;;8.90;99.90;;;;;;5048929;28;20048;-49
2023/05/25 04:16:52;;;;;;;9.10;4.43;;;8.90;99.90;;;;;;5049024;28;20033;-49
2023/05/25 04:19:18;;;;;;;9.87;3.77;;;9.00;99.90;;;;;;5048986;28;20029;-50
2023/05/25 04:21:45;;;;;;;12.53;4.07;;;9.00;99.90;;;;;;5048474;28;20025;-50
2023/05/25 04:24:11;;;;;;;8.00;3.50;;;9.00;99.90;;;;;;5051764;28;20043;-49
2023/05/25 04:26:38;;;;;;;7.87;3.60;;;9.00;99.90;;;;;;5052568;28;20108;-49
2023/05/25 04:29:05;;;;;;;10.70;3.87;;;9.00;99.90;;;;;;5052482;28;20047;-49
2023/05/25 04:32:13;;;;;;;11.03;3.87;;;9.00;99.90;;;;;;5048174;28;20025;-49
2023/05/25 04:34:52;;;;;;;11.03;3.90;;;9.00;99.90;;;;;;5052181;28;20029;-49
2023/05/25 04:37:27;;;;;;;13.53;3.87;;;9.10;99.90;;;;;;5052160;28;20516;-50
2023/05/25 04:39:57;;;;;;;7.10;3.87;;;9.10;99.90;;;;;;5052239;28;20453;-50
2023/05/25 04:42:22;;;;;;;8.83;3.67;;;9.10;99.90;;;;;;5051881;28;20039;-50
2023/05/25 04:44:57;;;;;;;12.30;4.10;;;9.10;99.90;;;;;;5051830;28;20024;-49
2023/05/25 04:47:24;;;;;;;9.80;4.47;;;9.20;99.90;;;;;;5052193;28;20029;-49
2023/05/25 04:49:51;;;;;;;9.83;4.13;;;9.20;99.90;;;;;;5052086;28;20063;-50
2023/05/25 04:52:17;;;;;;;9.90;3.53;;;9.30;99.90;;;;;;5051651;28;20037;-49
2023/05/25 04:54:45;;;;;;;9.80;4.30;;;9.30;99.90;;;;;;5051891;28;20029;-49
2023/05/25 04:57:12;;;;;;;10.90;3.90;;;9.30;99.90;;;;;;5051767;28;20086;-49
2023/05/25 04:59:40;;;;;;;7.03;3.73;;;9.40;99.90;;;;;;5051711;28;20059;-49
2023/05/25 05:02:07;;;;;;;7.20;3.80;;;9.50;99.90;;;;;;5051367;28;20652;-48
2023/05/25 05:04:32;;;;;;;10.60;3.77;;;9.60;99.90;;;;;;5051493;28;20029;-50
2023/05/25 05:06:58;;;;;;;10.63;4.07;;;9.70;99.90;;;;;;5051595;28;20047;-49
2023/05/25 05:09:24;;;;;;;8.93;3.90;;;9.70;99.90;;;;;;5051621;28;20029;-53
2023/05/25 05:11:52;;;;;;;11.30;4.20;;;9.80;99.90;;;;;;5051251;28;20029;-49
2023/05/25 05:14:18;;;;;;;9.00;3.80;;;9.80;99.90;;;;;;5052590;28;20060;-48
2023/05/25 05:16:46;;;;;;;10.37;4.67;;;9.90;99.90;;;;;;5051340;28;20033;-50
2023/05/25 05:19:12;;;;;;;8.27;3.90;;;9.90;99.90;;;;;;5051446;28;20132;-49
2023/05/25 05:21:39;;;;;;;11.90;4.30;;;10.00;99.90;;;;;;5050998;28;20033;-50
2023/05/25 05:24:06;;;;;;;8.17;3.57;;;10.10;99.90;;;;;;5051320;28;20056;-48
2023/05/25 05:26:32;;;;;;;9.90;4.27;;;10.20;99.90;;;;;;5051285;28;20194;-50
2023/05/25 05:28:57;;;;;;;9.17;3.77;;;10.30;99.90;;;;;;5052382;28;20037;-48
2023/05/25 05:31:26;;;;;;;9.93;4.17;;;10.30;99.90;;;;;;5050780;28;20043;-48
2023/05/25 05:33:51;;;;;;;9.80;4.77;;;10.40;99.90;;;;;;5050359;28;20083;-50
2023/05/25 05:36:17;;;;;;;8.67;4.17;;;10.50;99.90;;;;;;5050586;28;20033;-50
2023/05/25 05:38:45;;;;;;;9.17;3.60;;;10.60;99.90;;;;;;5050651;28;20036;-48
2023/05/25 05:41:13;;;;;;;10.63;4.93;;;10.60;99.90;;;;;;5050594;28;20033;-48
2023/05/25 05:43:42;;;;;;;10.23;3.93;;;10.70;99.90;;;;;;5050558;28;20440;-49
2023/05/25 05:46:11;;;;;;;7.20;3.65;;;10.80;99.90;;;;;;5052148;28;20043;-50
2023/05/25 05:48:39;;;;;;;12.13;4.07;;;10.90;99.90;;;;;;5050978;28;20340;-50
2023/05/25 05:51:05;;;;;;;7.43;3.60;;;10.90;99.90;;;;;;5051867;28;20029;-49
2023/05/25 05:53:32;;;;;;;9.87;3.90;;;11.00;99.90;;;;;;5050517;28;20406;-48
2023/05/25 05:55:58;;;;;;;11.50;4.53;;;11.00;99.90;;;;;;5050918;28;20025;-49
2023/05/25 05:58:28;;;;;;;10.93;5.00;;;11.10;99.90;;;;;;5050433;28;20508;-47
2023/05/25 06:00:55;;;;;;;9.67;4.50;;;11.20;99.90;;;;;;5050288;28;20036;-50
2023/05/25 06:03:26;;;;;;;8.53;4.50;;;11.30;99.90;;;;;;5050507;28;20055;-48
2023/05/25 06:05:52;;;;;;;7.53;3.70;;;11.40;99.90;;;;;;5050596;28;20057;-48
2023/05/25 06:08:18;;;;;;;10.13;3.97;;;11.40;99.90;;;;;;5050718;28;20036;-49
2023/05/25 06:10:44;;;;;;;6.77;3.70;;;11.50;99.90;;;;;;5050182;28;20396;-49
2023/05/25 06:13:10;;;;;;;10.70;4.87;;;11.60;99.90;;;;;;5051546;28;20198;-49
2023/05/25 06:15:36;;;;;;;10.63;3.90;;;11.70;99.90;;;;;;5050410;28;20029;-50
2023/05/25 06:18:07;;;;;;;11.00;4.13;;;11.80;99.90;;;;;;5050260;28;20102;-50
2023/05/25 06:20:34;;;;;;;8.30;3.93;;;11.90;99.90;;;;;;5050063;28;20036;-51
2023/05/25 06:23:00;;;;;;;9.07;3.85;;;12.00;99.90;;;;;;5050033;28;20032;-49
2023/05/25 06:25:27;;;;;;;10.18;3.95;;;12.10;99.90;;;;;;5049944;28;20112;-50
2023/05/25 06:27:54;;;;;;;9.13;4.07;;;12.20;99.90;;;;;;5050195;28;20032;-50
2023/05/25 06:30:20;;;;;;;11.15;4.30;;;12.30;99.90;;;;;;5049764;28;20116;-50
2023/05/25 06:32:46;;;;;;;10.38;4.13;;;12.40;99.90;;;;;;5049957;28;20119;-50
2023/05/25 06:35:18;;;;;;;11.43;4.18;;;12.40;99.90;;;;;;5049841;28;20456;-50
2023/05/25 06:37:48;;;;;;;11.25;4.32;;;12.50;99.90;;;;;;5049902;28;20421;-49
2023/05/25 06:40:15;;;;;;;11.25;4.18;;;12.60;99.90;;;;;;5049621;28;20036;-49
2023/05/25 06:42:42;;;;;;;10.43;4.20;;;12.70;99.90;;;;;;5049697;28;20037;-49
2023/05/25 06:45:26;;;;;;;13.13;4.10;;;12.80;99.90;;;;;;5049445;28;20580;-49
2023/05/25 06:47:52;;;;;;;8.43;4.28;;;12.90;99.90;;;;;;5051393;28;20112;-49
2023/05/25 06:50:18;;;;;;;16.98;4.43;;;13.00;99.90;;;;;;5049766;28;20029;-53
2023/05/25 06:52:45;;;;;;;8.65;3.50;;;13.20;99.90;;;;;;5050934;28;20036;-50
2023/05/25 06:55:11;;;;;;;8.10;3.80;;;13.30;99.90;;;;;;5050892;28;20056;-47
2023/05/25 06:57:37;;;;;;;9.82;4.15;;;13.30;99.90;;;;;;5050905;28;20064;-48
2023/05/25 07:00:10;;;;;;;7.72;3.60;;;13.50;99.90;;;;;;5050986;28;20550;-48
2023/05/25 07:02:36;;;;;;;7.25;3.75;;;13.60;99.90;;;;;;5051007;28;20033;-47
2023/05/25 07:05:04;;;;;;;8.10;3.58;;;13.80;99.90;;;;;;5050884;28;20025;-48
2023/05/25 07:07:30;;;;;;;8.57;4.25;;;13.90;99.90;;;;;;5050968;28;20028;-48
2023/05/25 07:09:56;;;;;;;10.05;4.40;;;14.00;99.90;;;;;;5051056;28;20430;-48
2023/05/25 07:12:22;;;;;;;8.93;3.42;;;14.10;99.90;;;;;;5050491;28;20112;-49
2023/05/25 07:14:48;;;;;;;13.18;3.42;;;14.20;99.90;;;;;;5050994;28;20061;-49
2023/05/25 07:17:14;;;;;;;8.50;3.90;;;14.20;99.90;;;;;;5050924;28;20421;-52
2023/05/25 07:19:42;;;;;;;8.05;3.60;;;14.30;99.90;;;;;;5050869;28;20060;-50
2023/05/25 07:22:09;;;;;;;10.88;4.00;;;14.30;99.90;;;;;;5050551;28;20041;-52
2023/05/25 07:24:35;;;;;;;7.68;3.35;;;14.20;99.90;;;;;;5050802;28;20048;-49
2023/05/25 07:27:01;;;;;;;15.48;4.28;;;14.30;99.90;;;;;;5050651;28;20027;-48
2023/05/25 07:29:27;;;;;;;7.82;3.90;;;14.30;99.90;;;;;;5050540;28;20029;-48
2023/05/25 07:31:52;;;;;;;9.25;4.10;;;14.40;99.90;;;;;;5050202;28;20028;-47
2023/05/25 07:34:19;;;;;;;10.88;4.68;;;14.50;99.90;;;;;;5050185;28;20033;-47
2023/05/25 07:36:45;;;;;;;9.68;4.60;;;14.40;99.90;;;;;;5050282;28;20036;-48
2023/05/25 07:39:11;;;;;;;9.57;5.28;;;14.40;99.90;;;;;;5050631;28;20535;-48
2023/05/25 07:41:37;;;;;;;11.38;5.00;;;14.40;99.90;;;;;;5050056;28;20182;-48
2023/05/25 07:44:03;;;;;;;11.38;4.53;;;14.40;99.90;;;;;;5050373;28;20068;-47
2023/05/25 07:46:29;;;;;;;8.85;4.32;;;14.40;99.90;;;;;;5050404;28;20122;-47
2023/05/25 07:48:57;;;;;;;10.63;5.07;;;14.40;99.90;;;;;;5050555;28;20525;-53
2023/05/25 07:51:25;;;;;;;10.50;4.68;;;14.60;99.90;;;;;;5050396;28;20028;-47
2023/05/25 07:53:52;;;;;;;9.55;4.78;;;14.80;99.90;;;;;;5050312;28;20478;-52
2023/05/25 07:56:18;;;;;;;8.63;4.40;;;15.00;99.90;;;;;;5050408;28;20115;-49
2023/05/25 07:58:43;;;;;;;11.38;5.15;;;15.30;99.90;;;;;;5053399;28;20131;-50
2023/05/25 08:01:09;;;;;;;11.00;5.22;;;15.60;99.90;;;;;;5053924;28;20112;-50
2023/05/25 08:03:35;;;;;;;11.23;5.20;;;15.70;99.90;;;;;;5054306;28;20044;-52
2023/05/25 08:06:01;;;;;;;7.97;4.18;;;15.70;99.90;;;;;;5054734;28;20467;-52
2023/05/25 08:08:27;;;;;;;10.45;4.97;;;15.80;99.90;;;;;;5054327;28;20029;-53
2023/05/25 08:10:52;;;;;;;7.50;4.43;;;15.70;99.90;;;;;;5054014;28;20021;-50
2023/05/25 08:13:18;;;;;;;9.82;4.28;;;15.70;99.90;;;;;;5053664;28;20029;-48
2023/05/25 08:15:44;;;;;;;9.18;3.63;;;15.70;99.90;;;;;;5053886;28;20381;-51
2023/05/25 08:18:09;;;;;;;5.95;3.30;;;15.60;99.90;;;;;;5053906;28;20033;-49
2023/05/25 08:20:36;;;;;;;8.18;3.70;;;15.70;99.90;;;;;;5053921;28;20025;-52
2023/05/25 08:23:03;;;;;;;7.35;3.47;;;15.70;99.90;;;;;;5054022;28;20032;-51
2023/05/25 08:25:29;;;;;;;7.47;3.10;;;15.80;99.90;;;;;;5054006;28;20056;-52
2023/05/25 08:27:55;;;;;;;8.00;3.20;;;15.90;99.90;;;;;;5053862;28;20021;-51
2023/05/25 08:30:20;;;;;;;6.85;3.33;;;16.10;99.90;;;;;;5053358;28;20037;-51
2023/05/25 08:32:46;;;;;;;10.60;3.55;;;16.20;99.90;;;;;;5053657;28;20044;-52
2023/05/25 08:35:12;;;;;;;6.70;3.55;;;16.10;99.90;;;;;;5053375;28;20037;-48
2023/05/25 08:37:38;;;;;;;9.77;5.47;;;16.10;99.90;;;;;;5053425;28;20032;-50
2023/05/25 08:40:06;;;;;;;10.10;5.78;;;16.00;99.90;;;;;;5053180;28;20724;-52
2023/05/25 08:42:32;;;;;;;8.30;5.35;;;15.90;99.90;;;;;;5053661;28;20041;-51
2023/05/25 08:44:58;;;;;;;8.05;4.45;;;15.80;99.90;;;;;;5053139;28;20052;-50
2023/05/25 08:47:30;;;;;;;9.27;5.03;;;15.70;99.90;;;;;;5053437;28;20060;-50
2023/05/25 08:49:57;;;;;;;11.38;5.00;;;15.70;99.90;;;;;;5053594;28;20029;-52
2023/05/25 08:52:27;;;;;;;8.68;4.65;;;15.60;99.90;;;;;;5053098;28;20028;-50
2023/05/25 08:54:56;;;;;;;8.73;5.20;;;15.60;99.90;;;;;;5053045;28;20459;-51
2023/05/25 08:57:24;;;;;;;8.27;5.90;;;15.60;99.90;;;;;;5053128;28;20050;-50
2023/05/25 08:59:57;;;;;;;11.57;6.20;;;15.60;99.90;;;;;;5053161;28;20033;-51
2023/05/25 09:02:49;;;;;;;11.23;6.13;;;15.50;99.90;;;;;;5053108;28;20039;-50
2023/05/25 09:05:15;;;;;;;14.57;6.82;;;15.50;99.90;;;;;;5052869;28;20033;-51
2023/05/25 09:07:43;;;;;;;11.90;6.93;;;15.40;99.90;;;;;;5053143;28;20021;-52
2023/05/25 09:10:10;;;;;;;11.10;7.00;;;15.40;99.90;;;;;;5052556;28;20029;-51
2023/05/25 09:12:37;;;;;;;13.32;7.35;;;15.40;99.90;;;;;;5052736;28;20465;-50
2023/05/25 09:15:04;;;;;;;11.80;7.63;;;15.60;99.90;;;;;;5052680;28;20405;-51
2023/05/25 09:17:30;;;;;;;8.93;6.35;;;15.80;99.90;;;;;;5052746;28;20397;-50
2023/05/25 09:19:57;;;;;;;10.05;6.65;;;16.10;99.90;;;;;;5052805;28;20033;-49
2023/05/25 09:22:23;;;;;;;11.77;6.30;;;16.20;99.90;;;;;;5052328;28;20041;-50
2023/05/25 09:24:49;;;;;;;10.73;6.70;;;16.20;99.90;;;;;;5052443;28;20025;-51
2023/05/25 09:27:19;;;;;;;10.35;6.20;;;16.10;99.90;;;;;;5052737;28;20025;-49
2023/05/25 09:29:49;;;;;;;9.15;6.63;;;16.00;99.90;;;;;;5052877;28;20444;-50
2023/05/25 09:32:18;;;;;;;12.02;7.97;;;16.00;99.90;;;;;;5052476;28;20127;-51
2023/05/25 09:34:45;;;;;;;15.50;8.70;;;16.00;99.90;;;;;;5052642;28;20045;-51
2023/05/25 09:37:15;;;;;;;15.13;9.15;;;15.90;99.90;;;;;;5052539;28;20086;-50
2023/05/25 09:39:41;;;;;;;14.25;8.57;;;15.60;99.90;;;;;;5052569;28;20036;-52
2023/05/25 09:42:08;;;;;;;11.52;7.78;;;15.50;99.90;;;;;;5052086;28;20025;-49
2023/05/25 09:44:33;;;;;;;10.00;7.93;;;15.50;99.90;;;;;;5052142;28;20044;-50
2023/05/25 09:47:00;;;;;;;8.95;6.88;;;15.70;99.90;;;;;;5052315;28;20021;-50
2023/05/25 09:49:26;;;;;;;9.13;5.80;;;15.70;99.90;;;;;;5052650;28;20386;-50
2023/05/25 09:51:52;;;;;;;9.93;6.50;;;15.50;99.90;;;;;;5051851;28;20048;-49
2023/05/25 09:54:18;;;;;;;11.45;5.63;;;15.50;99.90;;;;;;5051804;28;20033;-49
2023/05/25 09:56:44;;;;;;;9.10;5.72;;;15.60;99.90;;;;;;5052167;28;20091;-52
2023/05/25 09:59:11;;;;;;;7.75;5.40;;;15.90;99.90;;;;;;5051975;28;20029;-49
2023/05/25 10:01:36;;;;;;;10.35;5.68;;;15.90;99.90;;;;;;5051553;28;20027;-51
2023/05/25 10:04:02;;;;;;;11.18;5.90;;;15.90;99.90;;;;;;5051799;28;20032;-50
2023/05/25 10:06:28;;;;;;;8.35;5.40;;;15.90;99.90;;;;;;5051678;28;20493;-50
2023/05/25 10:08:56;;;;;;;9.15;5.38;;;15.90;99.90;;;;;;5051770;28;20056;-52
2023/05/25 10:11:23;;;;;;;9.98;5.15;;;15.80;99.90;;;;;;5051566;28;20033;-50
2023/05/25 10:13:51;;;;;;;8.55;5.10;;;15.80;99.90;;;;;;5051603;28;20079;-51
2023/05/25 10:16:17;;;;;;;7.53;4.70;;;15.80;99.90;;;;;;5051649;28;20115;-51
2023/05/25 10:18:49;;;;;;;7.15;4.97;;;15.70;99.90;;;;;;5051514;28;20406;-50
2023/05/25 10:21:18;;;;;;;10.15;4.40;;;15.60;99.90;;;;;;5050729;28;20124;-52
2023/05/25 10:23:49;;;;;;;7.68;4.30;;;15.70;99.90;;;;;;5051387;28;20035;-49
2023/05/25 10:26:21;;;;;;;6.95;4.57;;;15.70;99.90;;;;;;5051512;28;20496;-47
2023/05/25 10:28:50;;;;;;;9.90;5.10;;;15.80;99.90;;;;;;5051583;28;20314;-48
2023/05/25 10:31:17;;;;;;;6.53;4.30;;;15.80;99.90;;;;;;5051014;28;20029;-48
2023/05/25 10:33:44;;;;;;;7.68;4.10;;;15.80;99.90;;;;;;5051437;28;20099;-52
2023/05/25 10:36:12;;;;;;;9.75;4.50;;;15.80;99.90;;;;;;5051258;28;20048;-50
2023/05/25 10:38:39;;;;;;;7.50;3.90;;;15.80;99.90;;;;;;5050999;28;20039;-48
2023/05/25 10:41:07;;;;;;;6.60;3.70;;;15.80;99.90;;;;;;5050923;28;20444;-53
2023/05/25 10:43:33;;;;;;;6.43;3.22;;;15.90;99.90;;;;;;5050986;28;20029;-49
2023/05/25 10:45:59;;;;;;;8.55;4.35;;;16.00;99.90;;;;;;5051023;28;20036;-48
2023/05/25 10:48:36;;;;;;;7.50;3.75;;;16.00;99.90;;;;;;5050943;28;20020;-51
2023/05/25 10:51:02;;;;;;;7.30;3.58;;;16.00;99.90;;;;;;5050840;28;20607;-52
2023/05/25 10:53:28;;;;;;;6.05;3.05;;;15.90;99.90;;;;;;5050620;28;20111;-48
2023/05/25 10:55:53;;;;;;;8.07;3.67;;;16.00;99.90;;;;;;5051393;28;20098;-48
2023/05/25 10:58:21;;;;;;;7.63;3.03;;;15.90;99.90;;;;;;5050771;28;20028;-50
2023/05/25 11:01:02;;;;;;;6.43;2.97;;;15.80;99.90;;;;;;5050733;28;20028;-48
2023/05/25 11:03:55;;;;;;;6.03;3.53;;;15.80;99.90;;;;;;5050599;28;20037;-48
2023/05/25 11:06:43;;;;;;;6.03;3.42;;;15.80;99.90;;;;;;5050893;28;20398;-52
2023/05/25 11:09:26;;;;;;;5.63;3.37;;;15.90;99.90;;;;;;5050766;28;20046;-48
2023/05/25 11:11:54;;;;;;;6.32;3.58;;;16.20;99.90;;;;;;5050562;28;20429;-48
2023/05/25 11:14:26;;;;;;;9.90;3.42;;;16.40;99.90;;;;;;5050559;28;20033;-50
2023/05/25 11:17:13;;;;;;;7.43;3.50;;;16.40;99.90;;;;;;5050659;28;20029;-48
2023/05/25 11:19:55;;;;;;;7.75;3.30;;;16.50;99.90;;;;;;5050667;28;20505;-48
2023/05/25 11:22:21;;;;;;;8.00;3.55;;;16.50;99.90;;;;;;5050225;28;20072;-48
2023/05/25 11:24:48;;;;;;;5.93;3.67;;;16.50;99.90;;;;;;5050410;28;20029;-48
2023/05/25 11:27:14;;;;;;;8.18;3.65;;;16.40;99.90;;;;;;5050671;28;20043;-51
2023/05/25 11:29:40;;;;;;;7.00;3.03;;;16.40;99.90;;;;;;5050903;28;20112;-50
2023/05/25 11:32:13;;;;;;;8.27;3.63;;;16.30;99.90;;;;;;5050300;28;20029;-48
2023/05/25 11:34:40;;;;;;;9.15;3.63;;;16.30;99.90;;;;;;5054820;28;20044;-48
2023/05/25 11:37:08;;;;;;;10.15;3.88;;;16.20;99.90;;;;;;5054504;28;20390;-48
2023/05/25 11:39:34;;;;;;;8.98;3.85;;;16.20;99.90;;;;;;5054619;28;20062;-49
2023/05/25 11:42:05;;;;;;;6.78;2.72;;;16.20;99.90;;;;;;5054163;28;20064;-48
2023/05/25 11:44:33;;;;;;;6.68;2.80;;;16.10;99.90;;;;;;5054562;28;20021;-48
2023/05/25 11:47:13;;;;;;;7.93;2.78;;;16.00;99.90;;;;;;5054696;28;20162;-48
2023/05/25 11:49:48;;;;;;;5.07;2.35;;;16.10;99.90;;;;;;5054708;28;20029;-47
2023/05/25 11:52:18;;;;;;;6.60;3.63;;;16.00;99.90;;;;;;5054116;28;20029;-48
2023/05/25 11:54:44;;;;;;;7.28;3.38;;;16.00;99.90;;;;;;5054210;28;20052;-48
2023/05/25 11:57:23;;;;;;;6.07;2.85;;;16.00;99.90;;;;;;5054682;28;20037;-48
2023/05/25 11:59:56;;;;;;;6.57;3.00;;;16.00;99.90;;;;;;5054574;28;20055;-48
2023/05/25 12:02:22;;;;;;;5.88;2.60;;;16.10;99.90;;;;;;5054207;28;20061;-48
2023/05/25 12:05:07;;;;;;;5.70;2.95;;;16.40;99.90;;;;;;5054280;28;20025;-48
2023/05/25 12:07:33;;;;;;;7.63;2.80;;;16.60;99.90;;;;;;5054919;28;20082;-48
2023/05/25 12:10:15;;;;;;;8.48;3.40;;;16.60;99.90;;;;;;5054360;28;20027;-48
2023/05/25 12:12:42;;;;;;;5.82;3.03;;;16.70;99.90;;;;;;5054189;28;20029;-50
2023/05/25 12:15:10;;;;;;;5.18;2.90;;;16.70;99.90;;;;;;5053947;28;20075;-50
2023/05/25 12:17:37;;;;;;;8.90;3.70;;;16.80;99.90;;;;;;5053871;28;20086;-50
2023/05/25 12:20:06;;;;;;;7.47;3.67;;;17.00;99.90;;;;;;5053611;28;20029;-48
2023/05/25 12:22:32;;;;;;;8.57;3.75;;;17.00;99.90;;;;;;5053778;28;20044;-49
2023/05/25 12:24:58;;;;;;;7.70;3.83;;;17.10;99.90;;;;;;5053764;28;20079;-49
2023/05/25 12:27:24;;;;;;;9.05;3.50;;;17.10;99.90;;;;;;5053796;28;20485;-47
2023/05/25 12:29:52;;;;;;;6.97;3.50;;;17.30;99.90;;;;;;5053738;28;20036;-50
2023/05/25 12:32:17;;;;;;;6.93;3.67;;;17.50;99.90;;;;;;5053331;28;20086;-47
2023/05/25 12:34:44;;;;;;;9.77;3.53;;;17.50;99.90;;;;;;5053329;28;20029;-52
2023/05/25 12:37:20;;;;;;;7.97;3.03;;;17.40;99.90;;;;;;5053613;28;20068;-49
2023/05/25 12:39:47;;;;;;;6.78;3.28;;;17.40;99.90;;;;;;5053703;28;20032;-47
2023/05/25 12:42:14;;;;;;;8.77;3.67;;;17.40;99.90;;;;;;5051831;28;20397;-49
2023/05/25 12:44:41;;;;;;;8.70;3.97;;;17.40;99.90;;;;;;5052632;28;20040;-48
2023/05/25 12:47:18;;;;;;;11.82;4.43;;;17.30;99.90;;;;;;5053494;28;20112;-49
2023/05/25 12:50:11;;;;;;;8.00;3.42;;;17.40;99.90;;;;;;5053022;28;20411;-55
2023/05/25 12:52:42;;;;;;;7.25;3.65;;;17.30;99.90;;;;;;5052908;28;20375;-48